sensor_id;sensor_type;location;lat;lon;timestamp;P1;durP1;ratioP1;P2;durP2;ratioP2
64426;SDS011;50772;51.482;-0.580;2023-08-20T00:00:23;10.75;;;2.38;;
64426;SDS011;50772;51.482;-0.580;2023-08-20T00:02:49;9.68;;;2.15;;
64426;SDS011;50772;51.482;-0.580;2023-08-20T00:05:16;6.43;;;2.25;;
64426;SDS011;50772;51.482;-0.580;2023-08-20T00:07:42;12.32;;;1.90;;
64426;SDS011;50772;51.482;-0.580;2023-08-20T00:10:07;6.68;;;1.73;;
64426;SDS011;50772;51.482;-0.580;2023-08-20T00:12:32;9.02;;;1.70;;
64426;SDS011;50772;51.482;-0.580;2023-08-20T00:14:59;9.75;;;2.20;;
64426;SDS011;50772;51.482;-0.580;2023-08-20T00:17:30;16.08;;;2.40;;
64426;SDS011;50772;51.482;-0.580;2023-08-20T00:19:55;4.70;;;2.00;;
64426;SDS011;50772;51.482;-0.580;2023-08-20T00:22:22;5.82;;;2.30;;
64426;SDS011;50772;51.482;-0.580;2023-08-20T00:24:47;7.40;;;2.05;;
64426;SDS011;50772;51.482;-0.580;2023-08-20T00:27:12;15.30;;;2.30;;
64426;SDS011;50772;51.482;-0.580;2023-08-20T00:29:38;11.43;;;2.40;;
64426;SDS011;50772;51.482;-0.580;2023-08-20T00:32:05;9.63;;;2.55;;
64426;SDS011;50772;51.482;-0.580;2023-08-20T00:34:31;4.38;;;1.98;;
64426;SDS011;50772;51.482;-0.580;2023-08-20T00:36:56;6.80;;;2.58;;
64426;SDS011;50772;51.482;-0.580;2023-08-20T00:39:21;13.63;;;2.58;;
64426;SDS011;50772;51.482;-0.580;2023-08-20T00:41:46;6.00;;;2.50;;
64426;SDS011;50772;51.482;-0.580;2023-08-20T00:44:11;7.10;;;2.57;;
64426;SDS011;50772;51.482;-0.580;2023-08-20T00:46:37;11.80;;;2.40;;
64426;SDS011;50772;51.482;-0.580;2023-08-20T00:49:02;4.60;;;2.22;;
64426;SDS011;50772;51.482;-0.580;2023-08-20T00:51:28;9.32;;;2.45;;
64426;SDS011;50772;51.482;-0.580;2023-08-20T00:53:53;8.60;;;2.75;;
64426;SDS011;50772;51.482;-0.580;2023-08-20T00:56:19;12.82;;;3.08;;
64426;SDS011;50772;51.482;-0.580;2023-08-20T00:58:44;6.83;;;3.03;;
64426;SDS011;50772;51.482;-0.580;2023-08-20T01:01:09;8.98;;;2.90;;
64426;SDS011;50772;51.482;-0.580;2023-08-20T01:03:35;8.77;;;2.90;;
64426;SDS011;50772;51.482;-0.580;2023-08-20T01:06:12;10.83;;;3.43;;
64426;SDS011;50772;51.482;-0.580;2023-08-20T01:08:43;13.65;;;3.25;;
64426;SDS011;50772;51.482;-0.580;2023-08-20T01:11:12;12.63;;;3.28;;
64426;SDS011;50772;51.482;-0.580;2023-08-20T01:13:39;8.80;;;3.00;;
64426;SDS011;50772;51.482;-0.580;2023-08-20T01:16:04;8.00;;;3.50;;
64426;SDS011;50772;51.482;-0.580;2023-08-20T01:18:29;4.70;;;3.00;;
64426;SDS011;50772;51.482;-0.580;2023-08-20T01:20:58;5.72;;;2.30;;
64426;SDS011;50772;51.482;-0.580;2023-08-20T01:28:33;4.50;;;2.70;;
64426;SDS011;50772;51.482;-0.580;2023-08-20T01:30:59;5.30;;;2.35;;
64426;SDS011;50772;51.482;-0.580;2023-08-20T01:33:25;7.00;;;2.28;;
64426;SDS011;50772;51.482;-0.580;2023-08-20T01:35:55;4.50;;;2.22;;
64426;SDS011;50772;51.482;-0.580;2023-08-20T01:38:21;15.10;;;3.30;;
64426;SDS011;50772;51.482;-0.580;2023-08-20T01:40:47;7.78;;;2.33;;
64426;SDS011;50772;51.482;-0.580;2023-08-20T01:43:12;9.18;;;2.97;;
64426;SDS011;50772;51.482;-0.580;2023-08-20T01:45:37;8.90;;;2.47;;
64426;SDS011;50772;51.482;-0.580;2023-08-20T01:48:03;5.10;;;2.53;;
64426;SDS011;50772;51.482;-0.580;2023-08-20T01:50:31;6.60;;;2.63;;
64426;SDS011;50772;51.482;-0.580;2023-08-20T01:52:56;3.13;;;2.63;;
64426;SDS011;50772;51.482;-0.580;2023-08-20T01:55:21;11.60;;;3.07;;
64426;SDS011;50772;51.482;-0.580;2023-08-20T01:57:47;8.33;;;3.03;;
64426;SDS011;50772;51.482;-0.580;2023-08-20T02:00:18;6.70;;;2.92;;
64426;SDS011;50772;51.482;-0.580;2023-08-20T02:02:43;5.28;;;2.85;;
64426;SDS011;50772;51.482;-0.580;2023-08-20T02:05:29;14.10;;;3.08;;
64426;SDS011;50772;51.482;-0.580;2023-08-20T02:07:54;5.88;;;2.78;;
64426;SDS011;50772;51.482;-0.580;2023-08-20T02:10:19;9.95;;;2.97;;
64426;SDS011;50772;51.482;-0.580;2023-08-20T02:12:46;14.23;;;3.22;;
64426;SDS011;50772;51.482;-0.580;2023-08-20T02:15:11;6.50;;;2.50;;
64426;SDS011;50772;51.482;-0.580;2023-08-20T02:17:36;12.98;;;3.38;;
64426;SDS011;50772;51.482;-0.580;2023-08-20T02:20:02;8.93;;;2.70;;
64426;SDS011;50772;51.482;-0.580;2023-08-20T02:22:29;8.40;;;3.20;;
64426;SDS011;50772;51.482;-0.580;2023-08-20T02:24:54;9.55;;;3.22;;
64426;SDS011;50772;51.482;-0.580;2023-08-20T02:27:20;13.20;;;3.30;;
64426;SDS011;50772;51.482;-0.580;2023-08-20T02:29:45;12.67;;;3.37;;
64426;SDS011;50772;51.482;-0.580;2023-08-20T02:32:10;11.05;;;3.50;;
64426;SDS011;50772;51.482;-0.580;2023-08-20T02:34:35;6.75;;;2.90;;
64426;SDS011;50772;51.482;-0.580;2023-08-20T02:37:01;4.50;;;2.83;;
64426;SDS011;50772;51.482;-0.580;2023-08-20T02:39:26;9.57;;;3.13;;
64426;SDS011;50772;51.482;-0.580;2023-08-20T02:41:51;13.53;;;3.20;;
64426;SDS011;50772;51.482;-0.580;2023-08-20T02:44:16;13.20;;;3.80;;
64426;SDS011;50772;51.482;-0.580;2023-08-20T02:46:42;12.50;;;3.63;;
64426;SDS011;50772;51.482;-0.580;2023-08-20T02:49:09;7.57;;;2.97;;
64426;SDS011;50772;51.482;-0.580;2023-08-20T02:51:34;10.83;;;3.00;;
64426;SDS011;50772;51.482;-0.580;2023-08-20T02:54:00;8.40;;;2.90;;
64426;SDS011;50772;51.482;-0.580;2023-08-20T02:56:25;16.45;;;3.17;;
64426;SDS011;50772;51.482;-0.580;2023-08-20T02:58:50;3.57;;;2.60;;
64426;SDS011;50772;51.482;-0.580;2023-08-20T03:01:22;6.53;;;3.13;;
64426;SDS011;50772;51.482;-0.580;2023-08-20T03:03:48;8.32;;;3.08;;
64426;SDS011;50772;51.482;-0.580;2023-08-20T03:06:13;8.07;;;2.85;;
64426;SDS011;50772;51.482;-0.580;2023-08-20T03:08:39;6.90;;;3.03;;
64426;SDS011;50772;51.482;-0.580;2023-08-20T03:11:07;12.13;;;3.47;;
64426;SDS011;50772;51.482;-0.580;2023-08-20T03:13:32;5.47;;;2.92;;
64426;SDS011;50772;51.482;-0.580;2023-08-20T03:15:57;3.92;;;2.80;;
64426;SDS011;50772;51.482;-0.580;2023-08-20T03:18:23;4.95;;;2.88;;
64426;SDS011;50772;51.482;-0.580;2023-08-20T03:20:48;6.60;;;3.13;;
64426;SDS011;50772;51.482;-0.580;2023-08-20T03:23:15;8.88;;;3.10;;
64426;SDS011;50772;51.482;-0.580;2023-08-20T03:25:40;4.68;;;2.90;;
64426;SDS011;50772;51.482;-0.580;2023-08-20T03:28:06;10.47;;;3.00;;
64426;SDS011;50772;51.482;-0.580;2023-08-20T03:30:31;3.43;;;3.13;;
64426;SDS011;50772;51.482;-0.580;2023-08-20T03:32:56;8.45;;;2.95;;
64426;SDS011;50772;51.482;-0.580;2023-08-20T03:35:21;7.28;;;3.40;;
64426;SDS011;50772;51.482;-0.580;2023-08-20T03:37:47;9.43;;;3.70;;
64426;SDS011;50772;51.482;-0.580;2023-08-20T03:40:14;10.90;;;3.40;;
64426;SDS011;50772;51.482;-0.580;2023-08-20T03:42:40;8.60;;;3.58;;
64426;SDS011;50772;51.482;-0.580;2023-08-20T03:45:05;8.33;;;3.63;;
64426;SDS011;50772;51.482;-0.580;2023-08-20T03:47:31;6.90;;;3.90;;
64426;SDS011;50772;51.482;-0.580;2023-08-20T03:49:56;6.50;;;3.72;;
64426;SDS011;50772;51.482;-0.580;2023-08-20T03:52:21;12.73;;;4.03;;
64426;SDS011;50772;51.482;-0.580;2023-08-20T03:54:46;10.07;;;4.03;;
64426;SDS011;50772;51.482;-0.580;2023-08-20T03:57:12;9.32;;;4.63;;
64426;SDS011;50772;51.482;-0.580;2023-08-20T03:59:37;6.78;;;3.72;;
64426;SDS011;50772;51.482;-0.580;2023-08-20T04:02:02;16.73;;;4.43;;
64426;SDS011;50772;51.482;-0.580;2023-08-20T04:04:27;14.40;;;4.57;;
64426;SDS011;50772;51.482;-0.580;2023-08-20T04:06:54;11.60;;;4.93;;
64426;SDS011;50772;51.482;-0.580;2023-08-20T04:09:19;10.53;;;4.27;;
64426;SDS011;50772;51.482;-0.580;2023-08-20T04:11:44;13.63;;;4.37;;
64426;SDS011;50772;51.482;-0.580;2023-08-20T04:14:09;11.37;;;5.07;;
64426;SDS011;50772;51.482;-0.580;2023-08-20T04:16:34;5.03;;;4.18;;
64426;SDS011;50772;51.482;-0.580;2023-08-20T04:19:00;4.50;;;4.03;;
64426;SDS011;50772;51.482;-0.580;2023-08-20T04:21:26;8.23;;;3.90;;
64426;SDS011;50772;51.482;-0.580;2023-08-20T04:23:51;9.30;;;3.97;;
64426;SDS011;50772;51.482;-0.580;2023-08-20T04:26:17;8.48;;;4.18;;
64426;SDS011;50772;51.482;-0.580;2023-08-20T04:28:42;7.47;;;4.07;;
64426;SDS011;50772;51.482;-0.580;2023-08-20T04:31:07;12.03;;;4.20;;
64426;SDS011;50772;51.482;-0.580;2023-08-20T04:33:32;5.93;;;4.07;;
64426;SDS011;50772;51.482;-0.580;2023-08-20T04:35:57;7.90;;;4.13;;
64426;SDS011;50772;51.482;-0.580;2023-08-20T04:38:23;10.87;;;4.13;;
64426;SDS011;50772;51.482;-0.580;2023-08-20T04:40:48;8.37;;;4.37;;
64426;SDS011;50772;51.482;-0.580;2023-08-20T04:43:14;7.00;;;4.32;;
64426;SDS011;50772;51.482;-0.580;2023-08-20T04:45:40;9.95;;;4.65;;
64426;SDS011;50772;51.482;-0.580;2023-08-20T04:48:05;9.20;;;4.85;;
64426;SDS011;50772;51.482;-0.580;2023-08-20T04:50:30;5.78;;;4.38;;
64426;SDS011;50772;51.482;-0.580;2023-08-20T04:52:58;12.70;;;4.57;;
64426;SDS011;50772;51.482;-0.580;2023-08-20T04:55:29;11.40;;;4.78;;
64426;SDS011;50772;51.482;-0.580;2023-08-20T04:57:55;12.27;;;5.53;;
64426;SDS011;50772;51.482;-0.580;2023-08-20T05:00:21;16.67;;;4.87;;
64426;SDS011;50772;51.482;-0.580;2023-08-20T05:02:47;11.63;;;5.25;;
64426;SDS011;50772;51.482;-0.580;2023-08-20T05:05:12;9.40;;;4.63;;
64426;SDS011;50772;51.482;-0.580;2023-08-20T05:07:37;11.53;;;5.17;;
64426;SDS011;50772;51.482;-0.580;2023-08-20T05:10:03;12.80;;;4.85;;
64426;SDS011;50772;51.482;-0.580;2023-08-20T05:12:28;7.80;;;5.00;;
64426;SDS011;50772;51.482;-0.580;2023-08-20T05:14:54;10.95;;;4.65;;
64426;SDS011;50772;51.482;-0.580;2023-08-20T05:17:20;13.52;;;5.10;;
64426;SDS011;50772;51.482;-0.580;2023-08-20T05:19:45;19.92;;;5.30;;
64426;SDS011;50772;51.482;-0.580;2023-08-20T05:22:10;9.85;;;5.35;;
64426;SDS011;50772;51.482;-0.580;2023-08-20T05:24:37;19.90;;;5.60;;
64426;SDS011;50772;51.482;-0.580;2023-08-20T05:27:06;14.90;;;5.57;;
64426;SDS011;50772;51.482;-0.580;2023-08-20T05:29:31;23.08;;;5.88;;
64426;SDS011;50772;51.482;-0.580;2023-08-20T05:31:56;10.35;;;5.03;;
64426;SDS011;50772;51.482;-0.580;2023-08-20T05:34:22;15.20;;;6.10;;
64426;SDS011;50772;51.482;-0.580;2023-08-20T05:36:47;15.60;;;5.53;;
64426;SDS011;50772;51.482;-0.580;2023-08-20T05:39:12;17.27;;;5.53;;
64426;SDS011;50772;51.482;-0.580;2023-08-20T05:41:37;18.77;;;5.00;;
64426;SDS011;50772;51.482;-0.580;2023-08-20T05:44:05;17.35;;;5.75;;
64426;SDS011;50772;51.482;-0.580;2023-08-20T05:46:31;12.52;;;4.68;;
64426;SDS011;50772;51.482;-0.580;2023-08-20T05:48:56;12.57;;;5.07;;
64426;SDS011;50772;51.482;-0.580;2023-08-20T05:51:21;13.17;;;5.10;;
64426;SDS011;50772;51.482;-0.580;2023-08-20T05:53:46;13.47;;;4.73;;
64426;SDS011;50772;51.482;-0.580;2023-08-20T05:56:12;7.45;;;4.72;;
64426;SDS011;50772;51.482;-0.580;2023-08-20T05:58:37;11.73;;;4.37;;
64426;SDS011;50772;51.482;-0.580;2023-08-20T06:01:02;5.50;;;4.15;;
64426;SDS011;50772;51.482;-0.580;2023-08-20T06:03:28;9.02;;;4.47;;
64426;SDS011;50772;51.482;-0.580;2023-08-20T06:05:53;12.05;;;4.60;;
64426;SDS011;50772;51.482;-0.580;2023-08-20T06:08:18;5.43;;;4.17;;
64426;SDS011;50772;51.482;-0.580;2023-08-20T06:10:43;10.82;;;4.40;;
64426;SDS011;50772;51.482;-0.580;2023-08-20T06:13:09;10.00;;;4.50;;
64426;SDS011;50772;51.482;-0.580;2023-08-20T06:15:34;13.00;;;5.07;;
64426;SDS011;50772;51.482;-0.580;2023-08-20T06:17:59;10.20;;;4.22;;
64426;SDS011;50772;51.482;-0.580;2023-08-20T06:20:24;10.90;;;5.05;;
64426;SDS011;50772;51.482;-0.580;2023-08-20T06:22:50;10.33;;;4.53;;
64426;SDS011;50772;51.482;-0.580;2023-08-20T06:25:18;17.10;;;5.03;;
64426;SDS011;50772;51.482;-0.580;2023-08-20T06:27:43;22.38;;;4.60;;
64426;SDS011;50772;51.482;-0.580;2023-08-20T06:30:08;4.73;;;3.60;;
64426;SDS011;50772;51.482;-0.580;2023-08-20T06:32:34;8.95;;;4.53;;
64426;SDS011;50772;51.482;-0.580;2023-08-20T06:35:01;8.52;;;4.00;;
64426;SDS011;50772;51.482;-0.580;2023-08-20T06:37:26;8.88;;;4.70;;
64426;SDS011;50772;51.482;-0.580;2023-08-20T06:39:54;12.85;;;4.70;;
64426;SDS011;50772;51.482;-0.580;2023-08-20T06:42:19;14.07;;;5.10;;
64426;SDS011;50772;51.482;-0.580;2023-08-20T06:44:45;6.67;;;4.47;;
64426;SDS011;50772;51.482;-0.580;2023-08-20T06:47:10;21.88;;;4.72;;
64426;SDS011;50772;51.482;-0.580;2023-08-20T06:49:35;12.98;;;4.88;;
64426;SDS011;50772;51.482;-0.580;2023-08-20T06:52:00;18.83;;;5.33;;
64426;SDS011;50772;51.482;-0.580;2023-08-20T06:54:26;12.57;;;5.37;;
64426;SDS011;50772;51.482;-0.580;2023-08-20T06:56:51;12.30;;;4.67;;
64426;SDS011;50772;51.482;-0.580;2023-08-20T06:59:16;7.03;;;4.47;;
64426;SDS011;50772;51.482;-0.580;2023-08-20T07:01:42;9.15;;;4.53;;
64426;SDS011;50772;51.482;-0.580;2023-08-20T07:04:07;20.55;;;4.57;;
64426;SDS011;50772;51.482;-0.580;2023-08-20T07:06:33;13.80;;;4.18;;
64426;SDS011;50772;51.482;-0.580;2023-08-20T07:08:58;9.95;;;4.07;;
64426;SDS011;50772;51.482;-0.580;2023-08-20T07:11:23;7.03;;;4.47;;
64426;SDS011;50772;51.482;-0.580;2023-08-20T07:13:48;14.40;;;4.00;;
64426;SDS011;50772;51.482;-0.580;2023-08-20T07:16:15;10.17;;;4.03;;
64426;SDS011;50772;51.482;-0.580;2023-08-20T07:18:40;10.95;;;5.32;;
64426;SDS011;50772;51.482;-0.580;2023-08-20T07:21:07;11.65;;;4.60;;
64426;SDS011;50772;51.482;-0.580;2023-08-20T07:23:33;8.45;;;4.00;;
64426;SDS011;50772;51.482;-0.580;2023-08-20T07:26:05;6.93;;;3.65;;
64426;SDS011;50772;51.482;-0.580;2023-08-20T07:28:31;10.95;;;4.43;;
64426;SDS011;50772;51.482;-0.580;2023-08-20T07:31:14;9.57;;;3.72;;
64426;SDS011;50772;51.482;-0.580;2023-08-20T07:33:40;6.07;;;3.53;;
64426;SDS011;50772;51.482;-0.580;2023-08-20T07:36:05;7.17;;;3.73;;
64426;SDS011;50772;51.482;-0.580;2023-08-20T07:38:30;7.93;;;3.92;;
64426;SDS011;50772;51.482;-0.580;2023-08-20T07:40:58;8.43;;;3.50;;
64426;SDS011;50772;51.482;-0.580;2023-08-20T07:43:24;6.20;;;3.20;;
64426;SDS011;50772;51.482;-0.580;2023-08-20T07:45:49;8.05;;;3.03;;
64426;SDS011;50772;51.482;-0.580;2023-08-20T07:48:14;4.90;;;2.45;;
64426;SDS011;50772;51.482;-0.580;2023-08-20T07:50:40;7.32;;;2.88;;
64426;SDS011;50772;51.482;-0.580;2023-08-20T07:53:05;3.97;;;2.20;;
64426;SDS011;50772;51.482;-0.580;2023-08-20T07:55:30;7.55;;;2.63;;
64426;SDS011;50772;51.482;-0.580;2023-08-20T07:57:56;3.83;;;1.70;;
64426;SDS011;50772;51.482;-0.580;2023-08-20T08:00:21;2.72;;;2.20;;
64426;SDS011;50772;51.482;-0.580;2023-08-20T08:02:47;4.07;;;2.00;;
64426;SDS011;50772;51.482;-0.580;2023-08-20T08:05:12;3.67;;;1.73;;
64426;SDS011;50772;51.482;-0.580;2023-08-20T08:07:39;4.50;;;1.70;;
64426;SDS011;50772;51.482;-0.580;2023-08-20T08:10:09;4.72;;;1.77;;
64426;SDS011;50772;51.482;-0.580;2023-08-20T08:12:41;7.47;;;2.00;;
64426;SDS011;50772;51.482;-0.580;2023-08-20T08:15:13;5.40;;;1.70;;
64426;SDS011;50772;51.482;-0.580;2023-08-20T08:17:38;2.40;;;1.40;;
64426;SDS011;50772;51.482;-0.580;2023-08-20T08:20:04;2.28;;;1.20;;
64426;SDS011;50772;51.482;-0.580;2023-08-20T08:22:29;5.40;;;1.20;;
64426;SDS011;50772;51.482;-0.580;2023-08-20T08:24:55;2.67;;;1.17;;
64426;SDS011;50772;51.482;-0.580;2023-08-20T08:27:20;4.38;;;1.25;;
64426;SDS011;50772;51.482;-0.580;2023-08-20T08:29:45;3.13;;;1.40;;
64426;SDS011;50772;51.482;-0.580;2023-08-20T08:32:10;2.17;;;1.10;;
64426;SDS011;50772;51.482;-0.580;2023-08-20T08:34:36;3.20;;;1.40;;
64426;SDS011;50772;51.482;-0.580;2023-08-20T08:37:01;2.53;;;1.30;;
64426;SDS011;50772;51.482;-0.580;2023-08-20T08:39:26;1.35;;;1.00;;
64426;SDS011;50772;51.482;-0.580;2023-08-20T08:41:52;1.50;;;1.20;;
64426;SDS011;50772;51.482;-0.580;2023-08-20T08:44:19;2.72;;;1.10;;
64426;SDS011;50772;51.482;-0.580;2023-08-20T08:46:47;2.20;;;1.10;;
64426;SDS011;50772;51.482;-0.580;2023-08-20T08:49:16;1.58;;;1.20;;
64426;SDS011;50772;51.482;-0.580;2023-08-20T08:51:42;1.48;;;1.27;;
64426;SDS011;50772;51.482;-0.580;2023-08-20T08:54:07;1.63;;;0.82;;
64426;SDS011;50772;51.482;-0.580;2023-08-20T08:56:33;5.38;;;1.50;;
64426;SDS011;50772;51.482;-0.580;2023-08-20T08:58:59;2.33;;;1.13;;
64426;SDS011;50772;51.482;-0.580;2023-08-20T09:01:24;1.35;;;1.10;;
64426;SDS011;50772;51.482;-0.580;2023-08-20T09:03:49;1.55;;;1.00;;
64426;SDS011;50772;51.482;-0.580;2023-08-20T09:06:14;1.53;;;1.33;;
64426;SDS011;50772;51.482;-0.580;2023-08-20T09:08:40;2.17;;;1.00;;
64426;SDS011;50772;51.482;-0.580;2023-08-20T09:11:05;1.05;;;0.93;;
64426;SDS011;50772;51.482;-0.580;2023-08-20T09:13:40;1.63;;;1.10;;
64426;SDS011;50772;51.482;-0.580;2023-08-20T09:16:07;1.85;;;0.93;;
64426;SDS011;50772;51.482;-0.580;2023-08-20T09:18:34;1.67;;;1.40;;
64426;SDS011;50772;51.482;-0.580;2023-08-20T09:21:05;1.30;;;0.88;;
64426;SDS011;50772;51.482;-0.580;2023-08-20T09:23:31;1.65;;;1.00;;
64426;SDS011;50772;51.482;-0.580;2023-08-20T09:25:56;3.33;;;0.93;;
64426;SDS011;50772;51.482;-0.580;2023-08-20T09:28:21;2.77;;;1.13;;
64426;SDS011;50772;51.482;-0.580;2023-08-20T09:30:55;1.33;;;0.93;;
64426;SDS011;50772;51.482;-0.580;2023-08-20T09:33:21;1.02;;;0.85;;
64426;SDS011;50772;51.482;-0.580;2023-08-20T09:35:49;1.60;;;0.70;;
64426;SDS011;50772;51.482;-0.580;2023-08-20T09:38:16;1.02;;;0.90;;
64426;SDS011;50772;51.482;-0.580;2023-08-20T09:43:08;1.60;;;0.93;;
64426;SDS011;50772;51.482;-0.580;2023-08-20T09:45:35;2.90;;;0.90;;
64426;SDS011;50772;51.482;-0.580;2023-08-20T09:48:02;2.42;;;0.90;;
64426;SDS011;50772;51.482;-0.580;2023-08-20T09:50:33;1.67;;;1.08;;
64426;SDS011;50772;51.482;-0.580;2023-08-20T09:53:06;3.03;;;1.00;;
64426;SDS011;50772;51.482;-0.580;2023-08-20T09:55:34;2.78;;;0.90;;
64426;SDS011;50772;51.482;-0.580;2023-08-20T09:58:01;1.00;;;0.90;;
64426;SDS011;50772;51.482;-0.580;2023-08-20T10:00:28;1.77;;;1.02;;
64426;SDS011;50772;51.482;-0.580;2023-08-20T10:02:56;1.85;;;1.10;;
64426;SDS011;50772;51.482;-0.580;2023-08-20T10:05:22;1.17;;;1.00;;
64426;SDS011;50772;51.482;-0.580;2023-08-20T10:07:51;2.83;;;1.00;;
64426;SDS011;50772;51.482;-0.580;2023-08-20T10:10:17;1.15;;;0.77;;
64426;SDS011;50772;51.482;-0.580;2023-08-20T10:12:43;1.63;;;1.08;;
64426;SDS011;50772;51.482;-0.580;2023-08-20T10:15:10;1.45;;;0.82;;
64426;SDS011;50772;51.482;-0.580;2023-08-20T10:17:37;0.82;;;0.80;;
64426;SDS011;50772;51.482;-0.580;2023-08-20T10:20:05;0.90;;;0.80;;
64426;SDS011;50772;51.482;-0.580;2023-08-20T10:22:37;0.70;;;0.70;;
64426;SDS011;50772;51.482;-0.580;2023-08-20T10:25:06;1.73;;;0.90;;
64426;SDS011;50772;51.482;-0.580;2023-08-20T10:27:33;0.93;;;0.90;;
64426;SDS011;50772;51.482;-0.580;2023-08-20T10:29:59;1.35;;;0.70;;
64426;SDS011;50772;51.482;-0.580;2023-08-20T10:35:08;0.88;;;0.70;;
64426;SDS011;50772;51.482;-0.580;2023-08-20T10:37:34;0.90;;;0.85;;
64426;SDS011;50772;51.482;-0.580;2023-08-20T10:39:59;1.45;;;1.05;;
64426;SDS011;50772;51.482;-0.580;2023-08-20T10:42:28;2.00;;;0.80;;
64426;SDS011;50772;51.482;-0.580;2023-08-20T10:47:22;3.25;;;0.90;;
64426;SDS011;50772;51.482;-0.580;2023-08-20T10:49:50;1.58;;;0.80;;
64426;SDS011;50772;51.482;-0.580;2023-08-20T10:52:24;2.35;;;0.88;;
64426;SDS011;50772;51.482;-0.580;2023-08-20T10:54:50;0.60;;;0.60;;
64426;SDS011;50772;51.482;-0.580;2023-08-20T10:57:16;1.67;;;0.85;;
64426;SDS011;50772;51.482;-0.580;2023-08-20T10:59:41;1.67;;;1.02;;
64426;SDS011;50772;51.482;-0.580;2023-08-20T11:02:07;1.33;;;0.90;;
64426;SDS011;50772;51.482;-0.580;2023-08-20T11:04:36;1.17;;;0.82;;
64426;SDS011;50772;51.482;-0.580;2023-08-20T11:07:04;1.60;;;0.80;;
64426;SDS011;50772;51.482;-0.580;2023-08-20T11:09:30;1.15;;;0.93;;
64426;SDS011;50772;51.482;-0.580;2023-08-20T11:11:56;1.90;;;1.52;;
64426;SDS011;50772;51.482;-0.580;2023-08-20T11:14:21;1.42;;;0.85;;
64426;SDS011;50772;51.482;-0.580;2023-08-20T11:16:50;0.90;;;0.65;;
64426;SDS011;50772;51.482;-0.580;2023-08-20T11:19:19;0.80;;;0.80;;
64426;SDS011;50772;51.482;-0.580;2023-08-20T11:21:54;0.80;;;0.60;;
64426;SDS011;50772;51.482;-0.580;2023-08-20T11:24:20;2.20;;;1.00;;
64426;SDS011;50772;51.482;-0.580;2023-08-20T11:26:45;2.10;;;1.05;;
64426;SDS011;50772;51.482;-0.580;2023-08-20T11:29:11;1.10;;;0.90;;
64426;SDS011;50772;51.482;-0.580;2023-08-20T11:31:42;1.13;;;0.65;;
64426;SDS011;50772;51.482;-0.580;2023-08-20T11:34:07;2.55;;;0.85;;
64426;SDS011;50772;51.482;-0.580;2023-08-20T11:39:04;0.60;;;0.57;;
64426;SDS011;50772;51.482;-0.580;2023-08-20T11:41:29;1.23;;;0.80;;
64426;SDS011;50772;51.482;-0.580;2023-08-20T11:43:54;1.08;;;0.70;;
64426;SDS011;50772;51.482;-0.580;2023-08-20T11:46:23;0.77;;;0.70;;
64426;SDS011;50772;51.482;-0.580;2023-08-20T11:49:02;1.05;;;0.77;;
64426;SDS011;50772;51.482;-0.580;2023-08-20T11:51:28;2.95;;;0.90;;
64426;SDS011;50772;51.482;-0.580;2023-08-20T11:53:53;0.93;;;0.73;;
64426;SDS011;50772;51.482;-0.580;2023-08-20T11:56:21;0.50;;;0.50;;
64426;SDS011;50772;51.482;-0.580;2023-08-20T11:58:50;0.65;;;0.65;;
64426;SDS011;50772;51.482;-0.580;2023-08-20T12:01:17;2.53;;;0.73;;
64426;SDS011;50772;51.482;-0.580;2023-08-20T12:03:43;1.45;;;0.68;;
64426;SDS011;50772;51.482;-0.580;2023-08-20T12:06:28;0.82;;;0.68;;
64426;SDS011;50772;51.482;-0.580;2023-08-20T12:08:56;1.45;;;0.80;;
64426;SDS011;50772;51.482;-0.580;2023-08-20T12:11:27;1.23;;;0.80;;
64426;SDS011;50772;51.482;-0.580;2023-08-20T12:13:52;1.83;;;0.80;;
64426;SDS011;50772;51.482;-0.580;2023-08-20T12:16:18;0.80;;;0.80;;
64426;SDS011;50772;51.482;-0.580;2023-08-20T12:18:45;1.02;;;0.52;;
64426;SDS011;50772;51.482;-0.580;2023-08-20T12:21:10;0.82;;;0.70;;
64426;SDS011;50772;51.482;-0.580;2023-08-20T12:23:36;0.68;;;0.68;;
64426;SDS011;50772;51.482;-0.580;2023-08-20T12:26:01;1.50;;;0.73;;
64426;SDS011;50772;51.482;-0.580;2023-08-20T12:28:27;0.70;;;0.60;;
64426;SDS011;50772;51.482;-0.580;2023-08-20T12:30:55;0.73;;;0.73;;
64426;SDS011;50772;51.482;-0.580;2023-08-20T12:33:29;0.80;;;0.68;;
64426;SDS011;50772;51.482;-0.580;2023-08-20T12:35:55;1.02;;;0.93;;
64426;SDS011;50772;51.482;-0.580;2023-08-20T12:38:20;0.95;;;0.90;;
64426;SDS011;50772;51.482;-0.580;2023-08-20T12:40:46;0.75;;;0.75;;
64426;SDS011;50772;51.482;-0.580;2023-08-20T12:43:11;1.10;;;0.95;;
64426;SDS011;50772;51.482;-0.580;2023-08-20T12:45:36;1.00;;;0.80;;
64426;SDS011;50772;51.482;-0.580;2023-08-20T12:48:02;0.90;;;0.90;;
64426;SDS011;50772;51.482;-0.580;2023-08-20T12:50:28;0.75;;;0.50;;
64426;SDS011;50772;51.482;-0.580;2023-08-20T12:52:54;1.52;;;1.00;;
64426;SDS011;50772;51.482;-0.580;2023-08-20T12:55:19;1.03;;;0.90;;
64426;SDS011;50772;51.482;-0.580;2023-08-20T12:57:56;0.95;;;0.77;;
64426;SDS011;50772;51.482;-0.580;2023-08-20T13:00:22;0.90;;;0.90;;
64426;SDS011;50772;51.482;-0.580;2023-08-20T13:02:47;1.02;;;0.80;;
64426;SDS011;50772;51.482;-0.580;2023-08-20T13:05:13;1.15;;;0.70;;
64426;SDS011;50772;51.482;-0.580;2023-08-20T13:07:38;0.60;;;0.60;;
64426;SDS011;50772;51.482;-0.580;2023-08-20T13:10:04;2.15;;;0.77;;
64426;SDS011;50772;51.482;-0.580;2023-08-20T13:12:29;0.98;;;0.90;;
64426;SDS011;50772;51.482;-0.580;2023-08-20T13:14:57;0.80;;;0.68;;
64426;SDS011;50772;51.482;-0.580;2023-08-20T13:17:25;0.50;;;0.50;;
64426;SDS011;50772;51.482;-0.580;2023-08-20T13:19:51;1.35;;;0.63;;
64426;SDS011;50772;51.482;-0.580;2023-08-20T13:22:16;1.92;;;0.80;;
64426;SDS011;50772;51.482;-0.580;2023-08-20T13:24:42;1.60;;;0.70;;
64426;SDS011;50772;51.482;-0.580;2023-08-20T13:27:10;0.82;;;0.82;;
64426;SDS011;50772;51.482;-0.580;2023-08-20T13:29:35;0.63;;;0.50;;
64426;SDS011;50772;51.482;-0.580;2023-08-20T13:32:01;0.55;;;0.50;;
64426;SDS011;50772;51.482;-0.580;2023-08-20T13:34:26;1.10;;;0.90;;
64426;SDS011;50772;51.482;-0.580;2023-08-20T13:36:51;2.22;;;0.70;;
64426;SDS011;50772;51.482;-0.580;2023-08-20T13:39:17;1.67;;;0.60;;
64426;SDS011;50772;51.482;-0.580;2023-08-20T13:41:44;2.30;;;0.52;;
64426;SDS011;50772;51.482;-0.580;2023-08-20T13:44:11;0.67;;;0.60;;
64426;SDS011;50772;51.482;-0.580;2023-08-20T13:46:39;0.60;;;0.47;;
64426;SDS011;50772;51.482;-0.580;2023-08-20T13:49:07;0.80;;;0.60;;
64426;SDS011;50772;51.482;-0.580;2023-08-20T13:54:23;0.50;;;0.50;;
64426;SDS011;50772;51.482;-0.580;2023-08-20T13:56:51;1.10;;;0.70;;
64426;SDS011;50772;51.482;-0.580;2023-08-20T13:59:16;0.80;;;0.80;;
64426;SDS011;50772;51.482;-0.580;2023-08-20T14:01:41;50.10;;;2.67;;
64426;SDS011;50772;51.482;-0.580;2023-08-20T14:04:07;1.67;;;0.70;;
64426;SDS011;50772;51.482;-0.580;2023-08-20T14:06:41;0.83;;;0.80;;
64426;SDS011;50772;51.482;-0.580;2023-08-20T14:09:11;0.50;;;0.50;;
64426;SDS011;50772;51.482;-0.580;2023-08-20T14:11:42;4.28;;;0.73;;
64426;SDS011;50772;51.482;-0.580;2023-08-20T14:14:07;2.55;;;0.82;;
64426;SDS011;50772;51.482;-0.580;2023-08-20T14:16:35;1.03;;;0.57;;
64426;SDS011;50772;51.482;-0.580;2023-08-20T14:19:00;1.88;;;0.77;;
64426;SDS011;50772;51.482;-0.580;2023-08-20T14:21:26;0.80;;;0.60;;
64426;SDS011;50772;51.482;-0.580;2023-08-20T14:23:51;1.07;;;0.70;;
64426;SDS011;50772;51.482;-0.580;2023-08-20T14:26:19;1.50;;;0.53;;
64426;SDS011;50772;51.482;-0.580;2023-08-20T14:28:44;2.85;;;0.98;;
64426;SDS011;50772;51.482;-0.580;2023-08-20T14:33:37;0.50;;;0.50;;
64426;SDS011;50772;51.482;-0.580;2023-08-20T14:36:03;0.60;;;0.57;;
64426;SDS011;50772;51.482;-0.580;2023-08-20T14:41:28;1.55;;;0.82;;
64426;SDS011;50772;51.482;-0.580;2023-08-20T14:43:59;1.25;;;0.70;;
64426;SDS011;50772;51.482;-0.580;2023-08-20T14:52:24;0.85;;;0.68;;
64426;SDS011;50772;51.482;-0.580;2023-08-20T14:54:49;0.98;;;0.60;;